Crescent City, CA

9:09 AM PDT on September 21, 2014 (GMT -0700)
McNamara | Change Station
CLOSE
Current Station
Airport
Location: Crescent City,
Elevation: 56 ft
Nearby Weather Stations

Elev 56 ft 41.78 °N, 124.24 °W | Updated 13 minutes ago

Overcast
Overcast
61 °F
Feels Like 61 °F
N
9
Wind Variable Wind from South

Today
High -- | Low -- °F
--% Chance of Precip.
Yesterday
High -- | Low -- °F
Precip. -- in
7:03 AM 7:15 PM
Waning Crescent, 6% visible
Pressure 29.98 in
Visibility 10.0 miles
Clouds Overcast 1400 ft
Dew Point 58 °F
Humidity 90%
Rainfall 0.00 in
Snow Depth 0 in , 4 in , 0 in
UV 0 out of 12
Pollen 4.00 out of 12
Air Quality Not available.
Flu Activity Not available.
METAR KCEC 211556Z AUTO 17008KT 10SM OVC014 16/14 A2998 RMK AO2 SLP152 T01610144 $

More Conditions Fewer Conditions

Pressure 29.98 in
Visibility 10.0 miles
Clouds Overcast 1400 ft
Dew Point 58 °F
Humidity 90%
Rainfall 0.00 in
Snow Depth 0 in , 4 in , 0 in
UV 0 out of 12
Pollen 4.00 out of 12
Air Quality Not available.
Flu Activity Not available.
METAR KCEC 211556Z AUTO 17008KT 10SM OVC014 16/14 A2998 RMK AO2 SLP152 T01610144 $

More Conditions Fewer Conditions

10-Day Weather Forecast

Almanac

Astronomy

Sep. 21, 2014 Rise Set
Actual Time 7:03 AM PDT 7:15 PM PDT
Civil Twilight 6:35 AM PDT 7:43 PM PDT
Nautical Twilight 6:03 AM PDT 8:15 PM PDT
Astronomical Twilight 5:29 AM PDT 8:49 PM PDT
Moon 4:40 AM PDT 5:56 PM PDT
Length of Visible Light 13h 07m
Length of Day
12h 12m
Tomorrow will be 2m 46s shorter.
Waning Crescent, 6% of the Moon is Illuminated
Today
Waning Crescent
Sep 24
New
Oct 1
First Quarter
Oct 8
Full
Oct 15
Last Quarter

Today's Extremes

State Highs State Lows

Community

WunderPhotos

Upload Photos

1,755,181 photos uploaded!

Nearby

Snow Depth

Station Depth Elevation
Sonora Pass 0 in 8800 ft
CSS Lab 4 in 6900 ft
Fallen Leaf 0 in 6300 ft
Adin Mountain 0 in 6200 ft
Monitor Pass 1 in 8350 ft

Earthquake Activity

City Distance Mag. Time & Date
Eureka, California 60 miles 3.1 1:33 PM PDT
2014-09-20
Ferndale, California 131 miles 3.2 5:26 PM PDT
2014-09-17
Minimum magnitude displayed is 2.5.

Coastal Water Temperatures

Place Temperature
Crescent City, CA 63.0 °F
North Spit, CA 62.1 °F
Port Orford, OR 55.9 °F

Nearby Weather Stations